createdAt,value
2023-01-20T00:02:11.734Z,-4.19
2023-01-20T00:04:40.217Z,-4.20
2023-01-20T00:07:11.692Z,-4.21
2023-01-20T00:09:40.205Z,-4.24
2023-01-20T00:12:12.226Z,-4.26
2023-01-20T00:14:40.845Z,-4.27
2023-01-20T00:17:09.099Z,-4.24
2023-01-20T00:19:37.344Z,-4.24
2023-01-20T00:22:05.964Z,-4.25
2023-01-20T00:24:34.372Z,-4.26
2023-01-20T00:27:02.737Z,-4.25
2023-01-20T00:29:31.630Z,-4.23
2023-01-20T00:32:00.479Z,-4.20
2023-01-20T00:34:28.987Z,-4.16
2023-01-20T00:36:57.075Z,-4.14
2023-01-20T00:39:53.233Z,-4.13
2023-01-20T00:42:21.613Z,-4.13
2023-01-20T00:44:50.183Z,-4.12
2023-01-20T00:47:48.088Z,-4.14
2023-01-20T00:50:16.601Z,-4.15
2023-01-20T00:52:44.747Z,-4.15
2023-01-20T00:55:13.442Z,-4.13
2023-01-20T00:57:42.259Z,-4.11
2023-01-20T01:00:11.275Z,-4.09
2023-01-20T01:02:40.438Z,-4.08
2023-01-20T01:05:20.567Z,-4.06
2023-01-20T01:07:49.231Z,-4.03
2023-01-20T01:10:17.816Z,-4.01
2023-01-20T01:12:46.495Z,-3.99
2023-01-20T01:15:35.343Z,-3.97
2023-01-20T01:18:04.133Z,-3.94
2023-01-20T01:20:39.131Z,-3.93
2023-01-20T01:23:10.709Z,-3.91
2023-01-20T01:25:39.008Z,-3.91
2023-01-20T01:28:08.058Z,-3.90
2023-01-20T01:30:36.568Z,-3.89
2023-01-20T01:33:04.840Z,-3.89
2023-01-20T01:35:33.094Z,-3.89
2023-01-20T01:38:01.827Z,-3.89
2023-01-20T01:40:30.471Z,-3.88
2023-01-20T01:42:59.072Z,-3.89
2023-01-20T01:45:30.058Z,-3.87
2023-01-20T01:48:10.021Z,-3.88
2023-01-20T01:51:03.651Z,-3.88
2023-01-20T01:53:37.329Z,-3.88
2023-01-20T01:56:06.109Z,-3.87
2023-01-20T01:58:39.601Z,-3.85
2023-01-20T02:01:08.647Z,-3.84
2023-01-20T02:04:01.170Z,-3.82
2023-01-20T02:06:34.007Z,-3.81
2023-01-20T02:09:05.019Z,-3.80
2023-01-20T02:11:51.573Z,-3.79
2023-01-20T02:14:24.726Z,-3.77
2023-01-20T02:17:38.029Z,-3.77
2023-01-20T02:20:15.340Z,-3.77
2023-01-20T02:23:03.227Z,-3.75
2023-01-20T02:26:00.529Z,-3.74
2023-01-20T02:29:06.662Z,-3.73
2023-01-20T02:32:08.716Z,-3.74
2023-01-20T02:35:12.653Z,-3.75
2023-01-20T02:37:50.396Z,-3.74
2023-01-20T02:40:23.602Z,-3.75
2023-01-20T02:43:05.451Z,-3.76
2023-01-20T02:46:11.736Z,-3.76
2023-01-20T02:48:55.743Z,-3.74
2023-01-20T02:51:30.109Z,-3.73
2023-01-20T02:54:07.067Z,-3.71
2023-01-20T02:56:36.812Z,-3.69
2023-01-20T02:59:18.629Z,-3.67
2023-01-20T03:01:50.718Z,-3.65
2023-01-20T03:04:33.733Z,-3.64
2023-01-20T03:07:03.906Z,-3.63
2023-01-20T03:09:39.406Z,-3.62
2023-01-20T03:12:24.569Z,-3.62
2023-01-20T03:15:01.892Z,-3.61
2023-01-20T03:17:34.024Z,-3.59
2023-01-20T03:20:02.917Z,-3.57
2023-01-20T03:22:33.049Z,-3.56
2023-01-20T03:25:01.619Z,-3.55
2023-01-20T03:27:30.024Z,-3.55
2023-01-20T03:30:18.691Z,-3.55
2023-01-20T03:33:04.999Z,-3.53
2023-01-20T03:35:43.687Z,-3.49
2023-01-20T03:38:15.168Z,-3.45
2023-01-20T03:40:54.079Z,-3.40
2023-01-20T03:43:52.513Z,-3.36
2023-01-20T03:46:31.259Z,-3.31
2023-01-20T03:49:25.027Z,-3.27
2023-01-20T03:52:22.448Z,-3.25
2023-01-20T03:55:22.752Z,-3.23
2023-01-20T03:58:05.009Z,-3.21
2023-01-20T04:00:39.831Z,-3.19
2023-01-20T04:03:15.568Z,-3.17
2023-01-20T04:05:45.372Z,-3.16
2023-01-20T04:08:23.902Z,-3.14
2023-01-20T04:11:24.277Z,-3.11
2023-01-20T04:13:53.131Z,-3.09
2023-01-20T04:16:31.687Z,-3.07
2023-01-20T04:19:09.387Z,-3.05
2023-01-20T04:21:45.494Z,-3.03
2023-01-20T04:24:21.739Z,-3.00
2023-01-20T04:26:50.165Z,-2.99
2023-01-20T04:29:18.595Z,-2.98
2023-01-20T04:31:46.958Z,-2.98
2023-01-20T04:34:15.739Z,-2.97
2023-01-20T04:36:44.379Z,-2.97
2023-01-20T04:39:12.672Z,-2.96
2023-01-20T04:41:41.630Z,-2.95
2023-01-20T04:44:10.032Z,-2.94
2023-01-20T04:46:38.563Z,-2.93
2023-01-20T04:49:07.279Z,-2.92
2023-01-20T04:51:35.818Z,-2.91
2023-01-20T04:54:07.346Z,-2.90
2023-01-20T04:56:35.799Z,-2.88
2023-01-20T04:59:04.142Z,-2.88
2023-01-20T05:01:32.445Z,-2.88
2023-01-20T05:04:01.565Z,-2.88
2023-01-20T05:06:30.346Z,-2.89
2023-01-20T05:09:06.319Z,-2.87
2023-01-20T05:11:34.885Z,-2.86
2023-01-20T05:14:05.990Z,-2.85
2023-01-20T05:16:35.167Z,-2.85
2023-01-20T05:19:03.807Z,-2.85
2023-01-20T05:21:32.330Z,-2.85
2023-01-20T05:24:00.749Z,-2.87
2023-01-20T05:26:30.447Z,-2.88
2023-01-20T05:28:58.864Z,-2.88
2023-01-20T05:31:27.285Z,-2.86
2023-01-20T05:33:55.969Z,-2.86
2023-01-20T05:36:24.992Z,-2.86
2023-01-20T05:38:54.623Z,-2.85
2023-01-20T05:41:25.662Z,-2.86
2023-01-20T05:43:54.525Z,-2.84
2023-01-20T05:46:30.336Z,-2.82
2023-01-20T05:48:58.774Z,-2.82
2023-01-20T05:51:30.347Z,-2.82
2023-01-20T05:54:02.235Z,-2.81
2023-01-20T05:56:30.520Z,-2.80
2023-01-20T05:59:01.549Z,-2.78
2023-01-20T06:01:30.301Z,-2.79
2023-01-20T06:03:59.171Z,-2.79
2023-01-20T06:06:27.875Z,-2.78
2023-01-20T06:08:56.200Z,-2.75
2023-01-20T06:11:24.556Z,-2.74
2023-01-20T06:13:53.451Z,-2.71
2023-01-20T06:16:21.867Z,-2.66
2023-01-20T06:18:50.580Z,-2.56
2023-01-20T06:21:19.194Z,-2.46
2023-01-20T06:23:49.761Z,-2.39
2023-01-20T06:26:18.171Z,-2.32
2023-01-20T06:28:46.516Z,-2.25
2023-01-20T06:31:17.063Z,-2.19
2023-01-20T06:33:45.441Z,-2.15
2023-01-20T06:36:16.136Z,-2.12
2023-01-20T06:38:48.630Z,-2.10
2023-01-20T06:41:18.879Z,-2.07
2023-01-20T06:43:47.828Z,-2.02
2023-01-20T06:46:16.883Z,-1.96
2023-01-20T06:48:49.886Z,-1.91
2023-01-20T06:51:21.331Z,-1.88
2023-01-20T06:53:53.976Z,-1.87
2023-01-20T06:56:23.200Z,-1.87
2023-01-20T06:58:52.165Z,-1.87
2023-01-20T07:01:47.783Z,-1.87
2023-01-20T07:04:16.395Z,-1.86
2023-01-20T07:06:44.894Z,-1.85
2023-01-20T07:09:13.566Z,-1.84
2023-01-20T07:11:49.394Z,-1.82
2023-01-20T07:14:25.082Z,-1.80
2023-01-20T07:16:53.629Z,-1.80
2023-01-20T07:19:22.166Z,-1.80
2023-01-20T07:21:53.138Z,-1.81
2023-01-20T07:24:21.544Z,-1.81
2023-01-20T07:26:59.165Z,-1.78
2023-01-20T07:29:48.052Z,-1.78
2023-01-20T07:32:16.269Z,-1.77
2023-01-20T07:34:53.462Z,-1.76
2023-01-20T07:37:25.439Z,-1.75
2023-01-20T07:39:53.800Z,-1.73
2023-01-20T07:42:25.047Z,-1.73
2023-01-20T07:44:53.595Z,-1.73
2023-01-20T07:47:21.919Z,-1.72
2023-01-20T07:49:50.475Z,-1.72
2023-01-20T07:52:18.763Z,-1.71
2023-01-20T07:54:56.012Z,-1.71
2023-01-20T07:57:44.405Z,-1.71
2023-01-20T08:00:13.394Z,-1.71
2023-01-20T08:02:41.737Z,-1.73
2023-01-20T08:05:10.382Z,-1.76
2023-01-20T08:07:39.137Z,-1.78
2023-01-20T08:10:11.050Z,-1.76
2023-01-20T08:12:39.905Z,-1.74
2023-01-20T08:15:09.086Z,-1.73
2023-01-20T08:17:37.742Z,-1.72
2023-01-20T08:20:06.935Z,-1.69
2023-01-20T08:22:35.373Z,-1.66
2023-01-20T08:25:07.015Z,-1.66
2023-01-20T08:27:35.215Z,-1.66
2023-01-20T08:30:04.254Z,-1.67
2023-01-20T08:32:41.589Z,-1.65
2023-01-20T08:35:16.441Z,-1.63
2023-01-20T08:37:54.169Z,-1.62
2023-01-20T08:40:23.038Z,-1.68
2023-01-20T08:42:51.852Z,-1.68
2023-01-20T08:45:30.696Z,-1.66
2023-01-20T08:47:59.656Z,-1.64
2023-01-20T08:50:28.140Z,-1.63
2023-01-20T08:52:56.517Z,-1.63
2023-01-20T08:55:32.503Z,-1.64
2023-01-20T08:58:01.589Z,-1.61
2023-01-20T09:00:29.956Z,-1.59
2023-01-20T09:02:58.403Z,-1.57
2023-01-20T09:05:27.859Z,-1.56
2023-01-20T09:07:56.427Z,-1.53
2023-01-20T09:10:27.336Z,-1.50
2023-01-20T09:12:55.786Z,-1.49
2023-01-20T09:15:25.659Z,-1.45
2023-01-20T09:17:54.357Z,-1.49
2023-01-20T09:20:22.704Z,-1.45
2023-01-20T09:22:51.253Z,-1.41
2023-01-20T09:25:19.631Z,-1.37
2023-01-20T09:27:48.391Z,-1.34
2023-01-20T09:30:17.719Z,-1.32
2023-01-20T09:32:46.172Z,-1.30
2023-01-20T09:35:16.123Z,-1.26
2023-01-20T09:38:32.910Z,-1.24
2023-01-20T09:41:42.221Z,-1.23
2023-01-20T09:44:22.540Z,-1.18
2023-01-20T09:47:21.629Z,-1.14
2023-01-20T09:50:31.876Z,-1.08
2023-01-20T09:53:31.140Z,-1.03
2023-01-20T09:56:16.569Z,-1.06
2023-01-20T09:58:56.100Z,-1.10
2023-01-20T10:01:46.353Z,-1.09
2023-01-20T10:04:37.388Z,-1.07
2023-01-20T10:07:32.451Z,-1.03
2023-01-20T10:10:22.311Z,-1.05
2023-01-20T10:12:55.157Z,-1.02
2023-01-20T10:15:23.364Z,-0.99
2023-01-20T10:18:15.492Z,-1.00
2023-01-20T10:21:23.105Z,-1.00
2023-01-20T10:24:09.958Z,-1.02
2023-01-20T10:27:02.090Z,-1.06
2023-01-20T10:29:46.130Z,-1.06
2023-01-20T10:32:41.448Z,-1.03
2023-01-20T10:35:36.123Z,-1.03
2023-01-20T10:38:08.827Z,-1.05
2023-01-20T10:40:42.318Z,-1.15
2023-01-20T10:43:14.396Z,-1.16
2023-01-20T10:46:12.381Z,-1.15
2023-01-20T10:48:59.346Z,-1.13
2023-01-20T10:52:12.494Z,-1.12
2023-01-20T10:55:15.600Z,-1.17
2023-01-20T10:57:44.270Z,-1.20
2023-01-20T11:00:33.502Z,-1.22
2023-01-20T11:03:06.358Z,-1.19
2023-01-20T11:05:38.811Z,-1.17
2023-01-20T11:08:36.367Z,-1.18
2023-01-20T11:11:15.500Z,-1.18
2023-01-20T11:13:44.003Z,-1.18
2023-01-20T11:16:48.279Z,-1.21
2023-01-20T11:19:17.242Z,-1.34
2023-01-20T11:21:48.746Z,-1.38
2023-01-20T11:24:45.364Z,-1.33
2023-01-20T11:27:22.184Z,-1.31
2023-01-20T11:29:57.170Z,-1.34
2023-01-20T11:32:33.044Z,-1.38
2023-01-20T11:35:19.669Z,-1.37
2023-01-20T11:37:48.825Z,-1.36
2023-01-20T11:40:28.782Z,-1.35
2023-01-20T11:43:05.998Z,-1.38
2023-01-20T11:45:42.015Z,-1.46
2023-01-20T11:48:39.900Z,-1.57
2023-01-20T11:51:31.134Z,-1.60
2023-01-20T11:54:26.596Z,-1.61
2023-01-20T11:57:05.239Z,-1.59
2023-01-20T11:59:36.743Z,-1.59
2023-01-20T12:02:08.925Z,-1.62
2023-01-20T12:05:16.710Z,-1.64
2023-01-20T12:08:11.455Z,-1.62
2023-01-20T12:10:47.150Z,-1.61
2023-01-20T12:13:25.433Z,-1.62
2023-01-20T12:16:01.515Z,-1.62
2023-01-20T12:18:37.847Z,-1.63
2023-01-20T12:21:20.853Z,-1.56
2023-01-20T12:23:52.029Z,-1.52
2023-01-20T12:26:22.649Z,-1.50
2023-01-20T12:29:00.055Z,-1.49
2023-01-20T12:31:30.713Z,-1.49
2023-01-20T12:34:10.364Z,-1.47
2023-01-20T12:37:25.215Z,-1.47
2023-01-20T12:40:21.250Z,-1.48
2023-01-20T12:43:07.639Z,-1.48
2023-01-20T12:45:53.457Z,-1.52
2023-01-20T12:48:52.903Z,-1.57
2023-01-20T12:51:55.268Z,-1.63
2023-01-20T12:54:59.304Z,-1.67
2023-01-20T12:57:48.374Z,-1.70
2023-01-20T13:00:17.405Z,-1.71
2023-01-20T13:03:25.655Z,-1.67
2023-01-20T13:06:12.408Z,-1.67
2023-01-20T13:09:05.184Z,-1.66
2023-01-20T13:11:48.063Z,-1.70
2023-01-20T13:14:25.341Z,-1.72
2023-01-20T13:17:18.604Z,-1.70
2023-01-20T13:19:49.645Z,-1.65
2023-01-20T13:22:28.928Z,-1.66
2023-01-20T13:25:05.149Z,-1.68
2023-01-20T13:27:36.696Z,-1.69
2023-01-20T13:30:07.036Z,-1.67
2023-01-20T13:32:40.355Z,-1.65
2023-01-20T13:35:18.396Z,-1.65
2023-01-20T13:37:52.932Z,-1.63
2023-01-20T13:40:51.207Z,-1.60
2023-01-20T13:43:25.695Z,-1.61
2023-01-20T13:46:03.448Z,-1.64
2023-01-20T13:48:35.981Z,-1.66
2023-01-20T13:51:25.738Z,-1.67
2023-01-20T13:54:34.320Z,-1.69
2023-01-20T13:57:34.462Z,-1.71
2023-01-20T14:00:11.344Z,-1.71
2023-01-20T14:02:41.149Z,-1.73
2023-01-20T14:05:27.615Z,-1.78
2023-01-20T14:07:58.118Z,-1.83
2023-01-20T14:10:26.921Z,-1.82
2023-01-20T14:12:58.015Z,-1.82
2023-01-20T14:15:33.247Z,-1.80
2023-01-20T14:18:02.646Z,-1.83
2023-01-20T14:20:31.696Z,-1.83
2023-01-20T14:23:24.673Z,-1.82
2023-01-20T14:26:01.784Z,-1.80
2023-01-20T14:28:31.215Z,-1.80
2023-01-20T14:31:14.415Z,-1.80
2023-01-20T14:33:45.229Z,-1.83
2023-01-20T14:36:20.120Z,-1.82
2023-01-20T14:39:09.710Z,-1.79
2023-01-20T14:41:50.489Z,-1.79
2023-01-20T14:44:28.295Z,-1.78
2023-01-20T14:46:59.471Z,-1.83
2023-01-20T14:49:39.573Z,-1.86
2023-01-20T14:52:13.707Z,-1.93
2023-01-20T14:54:44.360Z,-1.93
2023-01-20T14:57:45.295Z,-1.92
2023-01-20T15:00:45.220Z,-1.95
2023-01-20T15:03:19.568Z,-1.99
2023-01-20T15:06:18.026Z,-1.98
2023-01-20T15:09:04.972Z,-2.05
2023-01-20T15:11:35.730Z,-2.09
2023-01-20T15:14:10.409Z,-2.08
2023-01-20T15:16:48.047Z,-2.05
2023-01-20T15:19:17.000Z,-2.02
2023-01-20T15:21:57.097Z,-2.00
2023-01-20T15:24:34.778Z,-2.10
2023-01-20T15:27:19.661Z,-2.17
2023-01-20T15:30:14.277Z,-2.19
2023-01-20T15:32:42.831Z,-2.19
2023-01-20T15:35:16.030Z,-2.20
2023-01-20T15:37:44.831Z,-2.17
2023-01-20T15:40:22.154Z,-2.18
2023-01-20T15:42:57.550Z,-2.17
2023-01-20T15:45:26.457Z,-2.14
2023-01-20T15:47:55.309Z,-2.13
2023-01-20T15:50:24.936Z,-2.12
2023-01-20T15:52:53.584Z,-2.12
2023-01-20T15:55:22.094Z,-2.14
2023-01-20T15:57:52.385Z,-2.20
2023-01-20T16:00:23.459Z,-2.24
2023-01-20T16:02:52.294Z,-2.26
2023-01-20T16:05:20.975Z,-2.27
2023-01-20T16:07:50.428Z,-2.26
2023-01-20T16:10:20.069Z,-2.23
2023-01-20T16:12:48.731Z,-2.24
2023-01-20T16:15:18.207Z,-2.29
2023-01-20T16:17:46.686Z,-2.30
2023-01-20T16:20:21.288Z,-2.30
2023-01-20T16:22:50.541Z,-2.31
2023-01-20T16:25:19.696Z,-2.29
2023-01-20T16:27:48.578Z,-2.24
2023-01-20T16:30:25.922Z,-2.15
2023-01-20T16:32:54.247Z,-2.11
2023-01-20T16:35:23.802Z,-2.15
2023-01-20T16:37:56.733Z,-2.20
2023-01-20T16:40:25.076Z,-2.24
2023-01-20T16:42:55.175Z,-2.26
2023-01-20T16:45:29.361Z,-2.33
2023-01-20T16:47:58.394Z,-2.38
2023-01-20T16:50:30.297Z,-2.39
2023-01-20T16:52:58.642Z,-2.43
2023-01-20T16:55:28.160Z,-2.46
2023-01-20T16:57:56.739Z,-2.47
2023-01-20T17:00:25.223Z,-2.49
2023-01-20T17:03:03.270Z,-2.49
2023-01-20T17:05:32.592Z,-2.49
2023-01-20T17:08:02.601Z,-2.56
2023-01-20T17:10:32.719Z,-2.59
2023-01-20T17:13:01.326Z,-2.61
2023-01-20T17:15:42.718Z,-2.56
2023-01-20T17:18:13.232Z,-2.54
2023-01-20T17:20:41.870Z,-2.56
2023-01-20T17:23:10.391Z,-2.60
2023-01-20T17:25:38.698Z,-2.64
2023-01-20T17:28:07.451Z,-2.63
2023-01-20T17:30:35.803Z,-2.64
2023-01-20T17:33:04.270Z,-2.69
2023-01-20T17:35:32.710Z,-2.75
2023-01-20T17:38:01.525Z,-2.79
2023-01-20T17:40:29.728Z,-2.81
2023-01-20T17:42:58.187Z,-2.80
2023-01-20T17:45:28.512Z,-2.81
2023-01-20T17:47:56.980Z,-2.84
2023-01-20T17:50:26.920Z,-2.88
2023-01-20T17:52:55.351Z,-2.89
2023-01-20T17:55:24.078Z,-2.88
2023-01-20T17:57:53.144Z,-2.86
2023-01-20T18:00:21.961Z,-2.85
2023-01-20T18:02:56.295Z,-2.85
2023-01-20T18:05:24.736Z,-2.89
2023-01-20T18:07:53.150Z,-2.89
2023-01-20T18:10:21.456Z,-2.80
2023-01-20T18:12:50.085Z,-2.80
2023-01-20T18:15:18.711Z,-2.84
2023-01-20T18:17:47.148Z,-2.86
2023-01-20T18:20:18.137Z,-2.89
2023-01-20T18:22:50.656Z,-2.85
2023-01-20T18:25:19.057Z,-2.89
2023-01-20T18:27:47.741Z,-2.90
2023-01-20T18:30:16.652Z,-2.91
2023-01-20T18:32:46.944Z,-2.91
2023-01-20T18:35:15.399Z,-2.90
2023-01-20T18:37:43.695Z,-2.89
2023-01-20T18:40:12.486Z,-2.94
2023-01-20T18:42:45.203Z,-2.98
2023-01-20T18:45:13.760Z,-2.97
2023-01-20T18:47:42.623Z,-2.94
2023-01-20T18:50:11.605Z,-2.92
2023-01-20T18:52:40.040Z,-2.93
2023-01-20T18:55:09.011Z,-2.93
2023-01-20T18:57:37.409Z,-2.91
2023-01-20T19:00:06.934Z,-2.94
2023-01-20T19:02:35.305Z,-2.97
2023-01-20T19:05:03.746Z,-3.02
2023-01-20T19:07:32.525Z,-3.00
2023-01-20T19:10:01.037Z,-3.03
2023-01-20T19:12:31.729Z,-3.05
2023-01-20T19:15:00.218Z,-3.05
2023-01-20T19:17:30.770Z,-3.01
2023-01-20T19:19:59.701Z,-2.98
2023-01-20T19:22:29.448Z,-2.96
2023-01-20T19:24:57.862Z,-2.92
2023-01-20T19:27:26.623Z,-2.90
2023-01-20T19:29:55.203Z,-2.93
2023-01-20T19:32:23.736Z,-2.96
2023-01-20T19:34:52.315Z,-2.97
2023-01-20T19:37:20.829Z,-2.97
2023-01-20T19:39:49.275Z,-2.96
2023-01-20T19:42:17.560Z,-2.96
2023-01-20T19:44:46.195Z,-2.93
2023-01-20T19:47:14.812Z,-2.93
2023-01-20T19:49:43.400Z,-2.95
2023-01-20T19:52:11.937Z,-2.93
2023-01-20T19:54:40.996Z,-2.91
2023-01-20T19:57:09.450Z,-2.93
2023-01-20T19:59:40.954Z,-2.93
2023-01-20T20:02:12.016Z,-2.95
2023-01-20T20:04:40.357Z,-2.97
2023-01-20T20:07:09.189Z,-2.99
2023-01-20T20:09:37.616Z,-3.02
2023-01-20T20:12:07.809Z,-3.04
2023-01-20T20:14:36.170Z,-3.06
2023-01-20T20:17:04.537Z,-3.05
2023-01-20T20:19:32.848Z,-3.06
2023-01-20T20:22:01.142Z,-3.08
2023-01-20T20:24:29.972Z,-3.08
2023-01-20T20:26:58.399Z,-3.09
2023-01-20T20:29:28.112Z,-3.07
2023-01-20T20:31:56.554Z,-3.09
2023-01-20T20:34:31.289Z,-3.07
2023-01-20T20:37:03.016Z,-3.06
2023-01-20T20:39:31.169Z,-3.07
2023-01-20T20:42:01.918Z,-3.07
2023-01-20T20:44:30.191Z,-3.08
2023-01-20T20:46:58.523Z,-3.07
2023-01-20T20:49:26.687Z,-3.09
2023-01-20T20:52:03.913Z,-3.09
2023-01-20T20:54:32.529Z,-3.09
2023-01-20T20:57:01.259Z,-3.06
2023-01-20T20:59:29.579Z,-3.07
2023-01-20T21:01:58.221Z,-3.08
2023-01-20T21:04:27.203Z,-3.04
2023-01-20T21:06:55.559Z,-2.96
2023-01-20T21:09:24.566Z,-2.98
2023-01-20T21:11:52.918Z,-3.02
2023-01-20T21:14:23.844Z,-3.03
2023-01-20T21:16:52.200Z,-3.04
2023-01-20T21:19:20.710Z,-3.05
2023-01-20T21:21:51.418Z,-3.03
2023-01-20T21:24:22.008Z,-3.01
2023-01-20T21:26:50.413Z,-3.05
2023-01-20T21:29:19.013Z,-3.05
2023-01-20T21:31:47.809Z,-3.07
2023-01-20T21:34:46.739Z,-3.09
2023-01-20T21:37:15.430Z,-3.09
2023-01-20T21:39:44.160Z,-3.09
2023-01-20T21:42:12.532Z,-3.11
2023-01-20T21:44:43.302Z,-3.12
2023-01-20T21:47:11.937Z,-3.09
2023-01-20T21:49:59.104Z,-3.11
2023-01-20T21:52:51.120Z,-3.14
2023-01-20T21:55:28.194Z,-3.16
2023-01-20T21:57:56.606Z,-3.15
2023-01-20T22:00:25.021Z,-3.11
2023-01-20T22:02:53.810Z,-3.09
2023-01-20T22:05:29.495Z,-3.11
2023-01-20T22:07:57.739Z,-3.11
2023-01-20T22:10:34.924Z,-3.11
2023-01-20T22:13:03.588Z,-3.13
2023-01-20T22:15:34.164Z,-3.14
2023-01-20T22:18:03.043Z,-3.11
2023-01-20T22:20:31.315Z,-3.11
2023-01-20T22:23:00.350Z,-3.14
2023-01-20T22:25:29.199Z,-3.16
2023-01-20T22:28:00.298Z,-3.15
2023-01-20T22:30:31.292Z,-3.17
2023-01-20T22:33:02.945Z,-3.18
2023-01-20T22:35:40.516Z,-3.16
2023-01-20T22:38:08.953Z,-3.14
2023-01-20T22:40:37.683Z,-3.12
2023-01-20T22:43:06.499Z,-3.12
2023-01-20T22:45:44.473Z,-3.14
2023-01-20T22:48:16.256Z,-3.16
2023-01-20T22:50:47.469Z,-3.14
2023-01-20T22:53:15.874Z,-3.13
2023-01-20T22:56:00.054Z,-3.15
2023-01-20T22:58:29.055Z,-3.16
2023-01-20T23:01:07.589Z,-3.16
2023-01-20T23:03:39.124Z,-3.14
2023-01-20T23:06:08.730Z,-3.12
2023-01-20T23:08:42.138Z,-3.13
2023-01-20T23:11:16.042Z,-3.12
2023-01-20T23:13:45.663Z,-3.09
2023-01-20T23:16:19.576Z,-3.09
2023-01-20T23:18:49.743Z,-3.08
2023-01-20T23:21:19.383Z,-3.08
2023-01-20T23:23:54.935Z,-3.11
2023-01-20T23:26:25.435Z,-3.13
2023-01-20T23:28:56.752Z,-3.11
2023-01-20T23:31:26.198Z,-3.08
2023-01-20T23:33:54.768Z,-3.05
2023-01-20T23:36:26.514Z,-3.04
2023-01-20T23:38:56.139Z,-3.03
2023-01-20T23:41:33.688Z,-3.02
2023-01-20T23:44:02.950Z,-3.05
2023-01-20T23:46:31.683Z,-3.05
2023-01-20T23:49:00.133Z,-3.05
2023-01-20T23:51:28.778Z,-3.06
2023-01-20T23:53:57.161Z,-3.03
2023-01-20T23:56:26.121Z,-3.01
2023-01-20T23:58:57.645Z,-3.00
